Time;durP1;ratioP1;P1;durP2;ratioP2;P2;SDS_P1;SDS_P2;PMS_P1;PMS_P2;Temp;Humidity;BMP_temperature;BMP_pressure;BME280_temperature;BME280_humidity;BME280_pressure;Samples;Min_cycle;Max_cycle;Signal;HPM_P1;HPM_P2
2022/08/05 00:00:59;;;;;;;38.97;17.88;;;;;;;21.28;63.69;100458.66;4834735;29;20058;-83
2022/08/05 00:03:25;;;;;;;26.73;16.70;;;;;;;21.28;63.61;100455.13;4836036;29;20075;-83
2022/08/05 00:05:51;;;;;;;34.60;17.50;;;;;;;21.25;63.49;100469.38;4835436;29;20079;-80
2022/08/05 00:08:18;;;;;;;28.98;15.38;;;;;;;21.10;63.42;100444.41;4822597;29;20536;-82
2022/08/05 00:10:44;;;;;;;27.80;16.55;;;;;;;21.04;63.18;100434.97;4839161;29;20045;-80
2022/08/05 00:13:10;;;;;;;30.90;18.00;;;;;;;21.28;63.36;100489.53;4836187;29;20138;-81
2022/08/05 00:15:36;;;;;;;25.10;14.65;;;;;;;20.95;63.55;100450.38;4839749;29;20121;-81
2022/08/05 00:18:03;;;;;;;25.92;16.95;;;;;;;21.14;63.32;100477.75;4835715;29;20045;-83
2022/08/05 00:20:29;;;;;;;28.02;16.25;;;;;;;20.87;63.28;100440.09;4830325;29;20054;-80
2022/08/05 00:22:55;;;;;;;37.53;18.35;;;;;;;20.92;63.33;100453.97;4837563;29;20152;-82
2022/08/05 00:25:21;;;;;;;29.73;16.98;;;;;;;20.92;63.82;100456.63;4830873;29;20041;-82
2022/08/05 00:27:47;;;;;;;33.28;17.08;;;;;;;21.03;63.63;100488.81;4842192;29;20381;-83
2022/08/05 00:30:13;;;;;;;28.08;17.27;;;;;;;20.88;63.76;100469.13;4841405;29;20098;-82
2022/08/05 00:32:39;;;;;;;30.85;16.33;;;;;;;20.69;64.18;100445.19;4834265;29;20050;-82
2022/08/05 00:35:06;;;;;;;39.88;20.80;;;;;;;20.62;63.89;100430.50;4848410;29;20114;-81
2022/08/05 00:37:33;;;;;;;38.95;17.70;;;;;;;20.92;64.03;100475.16;4838552;29;20113;-81
2022/08/05 00:39:59;;;;;;;30.40;17.00;;;;;;;20.89;64.09;100476.16;4850681;29;20045;-84
2022/08/05 00:42:36;;;;;;;27.58;17.48;;;;;;;20.55;64.00;100421.09;4843942;29;20050;-81
2022/08/05 00:45:05;;;;;;;25.80;16.27;;;;;;;20.76;64.33;100453.75;4835384;29;20182;-83
2022/08/05 00:47:31;;;;;;;31.75;17.02;;;;;;;20.67;64.23;100448.81;4818150;29;20043;-83
2022/08/05 00:49:58;;;;;;;26.73;15.40;;;;;;;20.70;64.18;100464.56;4833003;29;20137;-81
2022/08/05 00:52:24;;;;;;;29.48;17.67;;;;;;;20.53;64.29;100441.44;4834035;29;20046;-81
2022/08/05 00:54:51;;;;;;;27.60;17.30;;;;;;;20.39;64.32;100423.50;4837732;29;20088;-84
2022/08/05 00:57:17;;;;;;;31.30;17.38;;;;;;;20.57;64.48;100456.28;4824474;29;20053;-82
2022/08/05 00:59:43;;;;;;;26.33;15.52;;;;;;;20.59;64.82;100479.06;4836481;29;20105;-83
2022/08/05 01:02:10;;;;;;;29.15;16.25;;;;;;;20.33;64.87;100445.75;4840721;29;20533;-81
2022/08/05 01:04:36;;;;;;;29.65;16.83;;;;;;;20.21;64.67;100427.72;4838354;29;21018;-81
2022/08/05 01:07:02;;;;;;;25.20;16.35;;;;;;;20.50;65.02;100473.28;4835465;29;20042;-84
2022/08/05 01:09:28;;;;;;;27.95;16.65;;;;;;;20.23;65.09;100439.09;4829982;29;20616;-81
2022/08/05 01:11:58;;;;;;;30.67;17.20;;;;;;;20.25;64.79;100438.13;4838381;29;20050;-79
2022/08/05 01:14:32;;;;;;;26.90;16.15;;;;;;;20.49;64.79;100466.28;4849548;29;20056;-82
2022/08/05 01:17:38;;;;;;;29.52;18.15;;;;;;;20.54;64.99;100464.31;4846873;29;20057;-84
2022/08/05 01:20:23;;;;;;;37.28;18.77;;;;;;;20.59;65.12;100467.66;4845845;29;20259;-80
2022/08/05 01:23:08;;;;;;;41.25;19.48;;;;;;;20.64;65.10;100470.09;4852028;29;21380;-81
2022/08/05 01:25:56;;;;;;;34.58;18.13;;;;;;;20.64;64.91;100476.22;4853777;29;20041;-81
2022/08/05 01:28:31;;;;;;;29.60;17.23;;;;;;;20.64;64.79;100476.22;4852528;29;20118;-81
2022/08/05 01:31:11;;;;;;;24.00;16.17;;;;;;;20.64;64.56;100485.97;4850896;29;20058;-83
2022/08/05 01:33:45;;;;;;;29.20;17.55;;;;;;;20.46;64.51;100454.91;4871438;29;20331;-81
2022/08/05 01:36:14;;;;;;;28.27;17.67;;;;;;;20.50;64.96;100457.44;4860426;29;20075;-82
2022/08/05 01:38:42;;;;;;;33.45;18.30;;;;;;;20.61;65.32;100481.66;4841978;29;20042;-83
2022/08/05 01:41:11;;;;;;;27.55;18.38;;;;;;;20.39;65.64;100432.31;4834777;29;20050;-84
2022/08/05 01:43:38;;;;;;;29.42;18.38;;;;;;;20.67;65.33;100475.25;4835445;29;20045;-81
2022/08/05 01:46:04;;;;;;;30.45;17.83;;;;;;;20.64;65.30;100468.28;4836640;29;20042;-82
2022/08/05 01:48:33;;;;;;;29.15;18.33;;;;;;;20.72;65.15;100482.06;4832080;29;20077;-82
2022/08/05 01:51:02;;;;;;;28.08;17.50;;;;;;;20.57;65.47;100443.06;4835839;29;20046;-82
2022/08/05 01:53:30;;;;;;;30.30;16.83;;;;;;;20.61;65.51;100439.38;4835119;29;20449;-83
2022/08/05 01:56:00;;;;;;;25.95;16.95;;;;;;;20.73;65.62;100452.06;4836758;29;20065;-83
2022/08/05 01:58:28;;;;;;;29.73;17.30;;;;;;;20.74;65.19;100448.50;4835149;29;20042;-82
2022/08/05 02:00:56;;;;;;;26.48;16.05;;;;;;;20.74;65.33;100430.00;4812536;29;20053;-85
2022/08/05 02:03:28;;;;;;;27.00;17.00;;;;;;;20.87;65.05;100456.81;4835346;29;20468;-82
2022/08/05 02:05:54;;;;;;;31.98;17.05;;;;;;;20.95;65.00;100472.38;4836546;29;20129;-82
2022/08/05 02:08:21;;;;;;;22.60;16.20;;;;;;;21.02;65.01;100480.91;4833720;29;20523;-82
2022/08/05 02:10:52;;;;;;;28.33;16.67;;;;;;;21.13;65.05;100493.69;4832564;29;20068;-84
2022/08/05 02:13:33;;;;;;;;;;;;;;;21.17;65.21;100490.00;4838415;29;20719;-84
2022/08/05 02:16:30;;;;;;;24.85;17.13;;;;;;;21.20;64.78;100490.72;4859300;29;19933;-80
2022/08/05 02:19:16;;;;;;;28.38;17.10;;;;;;;21.07;65.08;100476.28;4842123;29;20048;-82
2022/08/05 02:21:51;;;;;;;27.00;17.75;;;;;;;21.11;64.98;100467.31;4836736;29;20053;-82
2022/08/05 02:24:21;;;;;;;26.33;17.42;;;;;;;21.18;64.58;100479.38;4834750;29;20063;-80
2022/08/05 02:26:53;;;;;;;31.40;17.87;;;;;;;21.28;64.90;100497.47;4821353;29;20053;-81
2022/08/05 02:29:21;;;;;;;;;;;;;;;21.30;64.92;100499.13;4837272;29;20068;-79
2022/08/05 02:31:49;;;;;;;28.67;16.80;;;;;;;21.30;64.76;100508.84;4833387;29;20384;-83
2022/08/05 02:34:18;;;;;;;28.70;17.25;;;;;;;21.17;64.43;100488.22;4831856;29;20132;-80
2022/08/05 02:36:56;;;;;;;25.13;18.88;;;;;;;21.03;64.45;100467.63;4834721;29;20085;-82
2022/08/05 02:39:23;;;;;;;23.67;16.13;;;;;;;21.10;65.21;100483.22;4832716;29;20140;-81
2022/08/05 02:41:52;;;;;;;29.73;17.77;;;;;;;21.19;64.97;100502.22;4830354;29;20050;-82
2022/08/05 02:44:20;;;;;;;26.77;17.15;;;;;;;21.19;64.61;100481.06;4835629;29;20121;-81
2022/08/05 02:46:48;;;;;;;22.60;17.27;;;;;;;21.39;64.85;100520.84;4823466;29;20105;-79
2022/08/05 02:49:18;;;;;;;28.83;18.65;;;;;;;21.21;64.51;100487.16;4826434;29;20117;-80
2022/08/05 02:51:45;;;;;;;40.17;25.40;;;;;;;21.40;64.34;100518.16;4848727;29;20054;-81
2022/08/05 02:54:13;;;;;;;29.50;20.05;;;;;;;21.18;64.21;100465.25;4854502;29;20034;-80
2022/08/05 02:56:41;;;;;;;24.48;17.65;;;;;;;21.54;64.35;100527.28;4855063;29;20067;-80
2022/08/05 02:59:14;;;;;;;25.77;17.35;;;;;;;21.54;64.35;100514.88;4847705;29;20097;-80
2022/08/05 03:01:42;;;;;;;29.73;18.25;;;;;;;21.48;63.58;100517.81;4853702;29;20121;-81
2022/08/05 03:04:13;;;;;;;24.63;17.80;;;;;;;21.55;63.88;100539.59;4854994;29;20044;-82
2022/08/05 03:06:41;;;;;;;25.90;18.02;;;;;;;21.59;63.68;100536.72;4841715;29;20074;-81
2022/08/05 03:09:11;;;;;;;24.25;17.35;;;;;;;21.63;63.29;100533.06;4859506;29;20042;-83
2022/08/05 03:11:41;;;;;;;26.45;17.60;;;;;;;21.65;63.31;100535.63;4841163;29;20187;-83
2022/08/05 03:14:07;;;;;;;30.83;18.35;;;;;;;21.39;63.00;100500.53;4838287;29;20071;-83
2022/08/05 03:16:35;;;;;;;27.88;18.40;;;;;;;21.39;63.42;100510.25;4844342;29;20061;-82
2022/08/05 03:19:03;;;;;;;24.88;17.73;;;;;;;21.42;63.04;100526.00;4844609;29;20042;-83
2022/08/05 03:21:30;;;;;;;22.35;17.00;;;;;;;21.35;63.20;100496.31;4823832;29;20062;-82
2022/08/05 03:23:57;;;;;;;23.30;17.05;;;;;;;21.44;62.92;100508.28;4838341;29;20031;-83
2022/08/05 03:26:23;;;;;;;25.40;18.10;;;;;;;21.69;62.97;100547.81;4857590;29;20022;-85
2022/08/05 03:28:49;;;;;;;27.70;17.88;;;;;;;21.68;62.50;100548.72;4848170;29;20057;-82
2022/08/05 03:31:16;;;;;;;27.88;17.92;;;;;;;21.62;62.80;100541.09;4842426;29;20042;-85
2022/08/05 03:33:42;;;;;;;31.73;18.75;;;;;;;21.41;62.63;100505.75;4842760;29;20046;-82
2022/08/05 03:36:09;;;;;;;30.60;18.35;;;;;;;21.59;62.71;100533.22;4841146;29;20042;-82
2022/08/05 03:38:42;;;;;;;36.50;19.98;;;;;;;21.38;62.77;100504.13;4844655;29;20045;-84
2022/08/05 03:41:09;;;;;;;27.60;17.20;;;;;;;21.66;62.94;100535.56;4847036;29;20049;-84
2022/08/05 03:43:36;;;;;;;23.13;17.80;;;;;;;21.65;62.90;100549.75;4843742;29;20107;-79
2022/08/05 03:46:04;;;;;;;30.30;17.83;;;;;;;21.67;63.25;100547.88;4843048;29;20038;-86
2022/08/05 03:48:30;;;;;;;26.70;18.30;;;;;;;21.44;63.36;100525.00;4843927;29;20015;-83
2022/08/05 03:51:20;;;;;;;26.50;18.88;;;;;;;21.55;63.02;100537.78;4853467;29;20053;-81
2022/08/05 03:54:05;;;;;;;25.08;17.63;;;;;;;21.55;63.33;100532.47;4841739;29;20724;-83
2022/08/05 03:56:44;;;;;;;23.77;17.25;;;;;;;21.77;63.50;100542.16;4820718;29;20045;-82
2022/08/05 03:59:16;;;;;;;25.83;17.42;;;;;;;21.94;63.25;100567.91;4831873;29;20050;-81
2022/08/05 04:01:47;;;;;;;25.65;16.63;;;;;;;22.08;62.94;100572.63;4832128;29;20050;-84
2022/08/05 04:04:15;;;;;;;21.63;15.60;;;;;;;22.15;62.72;100560.81;4846280;29;20109;-82
2022/08/05 04:06:42;;;;;;;23.60;15.98;;;;;;;22.16;62.67;100533.38;4832358;29;20070;-83
2022/08/05 04:09:09;;;;;;;22.55;16.98;;;;;;;22.25;61.28;100542.72;4821305;29;20066;-84
2022/08/05 04:11:35;;;;;;;25.55;16.70;;;;;;;22.46;61.57;100562.06;4837315;29;20414;-85
2022/08/05 04:14:03;;;;;;;23.77;16.40;;;;;;;22.45;61.81;100533.84;4827783;29;20050;-82
2022/08/05 04:16:31;;;;;;;20.92;16.20;;;;;;;22.80;61.17;100563.16;4829841;29;20050;-85
2022/08/05 04:18:57;;;;;;;26.42;15.57;;;;;;;22.96;61.40;100552.63;4820126;29;20060;-84
2022/08/05 04:21:24;;;;;;;22.58;15.38;;;;;;;23.13;60.38;100545.66;4834571;29;20042;-85
2022/08/05 04:23:50;;;;;;;16.42;14.02;;;;;;;23.07;59.94;100530.88;4829832;29;20073;-82
2022/08/05 04:26:16;;;;;;;20.88;14.48;;;;;;;23.10;59.26;100529.88;4833822;29;20040;-83
2022/08/05 04:28:43;;;;;;;21.02;13.93;;;;;;;23.23;58.86;100551.38;4832517;29;20050;-88
2022/08/05 04:31:09;;;;;;;17.67;13.45;;;;;;;23.19;58.89;100549.78;4812906;29;20057;-84
2022/08/05 04:33:35;;;;;;;18.67;13.77;;;;;;;23.26;58.53;100557.41;4820119;29;20143;-83
2022/08/05 04:36:02;;;;;;;18.38;12.35;;;;;;;23.35;58.53;100540.13;4830154;29;20064;-84
2022/08/05 04:38:29;;;;;;;20.17;12.98;;;;;;;23.66;58.22;100557.16;4840478;29;20129;-83
2022/08/05 04:40:55;;;;;;;21.90;13.65;;;;;;;23.75;57.84;100537.22;4841134;29;20045;-84
2022/08/05 04:43:22;;;;;;;19.75;13.18;;;;;;;23.90;57.03;100519.63;4842268;29;20524;-85
2022/08/05 04:45:49;;;;;;;14.80;12.23;;;;;;;24.13;56.93;100552.97;4821782;29;20042;-85
2022/08/05 04:48:15;;;;;;;16.58;13.07;;;;;;;23.89;56.43;100478.03;4840940;29;20136;-84
2022/08/05 04:50:46;;;;;;;18.67;12.15;;;;;;;24.42;55.94;100529.25;4825308;29;20045;-83
2022/08/05 04:53:15;;;;;;;15.43;12.15;;;;;;;24.64;55.73;100514.75;4844910;29;20053;-84
2022/08/05 04:55:42;;;;;;;16.92;12.40;;;;;;;25.03;55.42;100548.03;4840255;29;20541;-84
2022/08/05 04:58:10;;;;;;;21.60;12.68;;;;;;;25.18;54.60;100516.13;4841681;29;20042;-80
2022/08/05 05:00:38;;;;;;;15.70;11.77;;;;;;;25.58;54.01;100559.06;4843829;29;20050;-82
2022/08/05 05:03:05;;;;;;;14.98;11.05;;;;;;;25.76;53.90;100537.59;4830915;29;20046;-81
2022/08/05 05:05:32;;;;;;;18.95;11.75;;;;;;;25.96;52.71;100533.69;4838207;29;20124;-84
2022/08/05 05:08:00;;;;;;;16.15;11.32;;;;;;;26.40;51.85;100556.72;4841798;29;20053;-84
2022/08/05 05:10:28;;;;;;;16.00;11.52;;;;;;;26.48;51.36;100518.03;4844874;29;20062;-84
2022/08/05 05:12:54;;;;;;;13.82;10.57;;;;;;;27.07;50.39;100555.16;4826588;29;20075;-83
2022/08/05 05:16:27;;;;;;;13.10;10.23;;;;;;;27.41;49.79;100547.53;4808040;29;20068;-84
2022/08/05 05:19:14;;;;;;;11.75;9.57;;;;;;;27.40;48.35;100480.84;4838161;29;20042;-82
2022/08/05 05:21:45;;;;;;;12.18;9.70;;;;;;;27.99;47.82;100535.59;4822459;29;20053;-83
2022/08/05 05:24:13;;;;;;;16.02;10.20;;;;;;;28.16;47.46;100521.06;4853025;29;20069;-82
2022/08/05 05:30:08;;;;;;;12.50;8.82;;;;;;;28.71;45.66;100521.53;4832527;29;20070;-81
2022/08/05 05:32:34;;;;;;;11.38;8.20;;;;;;;29.00;44.57;100554.19;4832996;29;20054;-83
2022/08/05 05:35:00;;;;;;;13.27;9.35;;;;;;;28.96;42.96;100557.22;4830279;29;20049;-84
2022/08/05 05:37:27;;;;;;;11.90;9.20;;;;;;;29.24;43.72;100557.84;4829511;29;20042;-84
2022/08/05 05:39:53;;;;;;;9.63;8.63;;;;;;;29.99;42.37;100542.31;4834051;29;20053;-84
2022/08/05 05:42:19;;;;;;;11.52;8.50;;;;;;;31.55;40.87;100551.03;4836956;29;20423;-84
2022/08/05 05:44:45;;;;;;;14.73;9.05;;;;;;;32.63;37.94;100534.47;4831497;29;20132;-82
2022/08/05 05:47:11;;;;;;;10.30;7.40;;;;;;;33.89;35.57;100498.59;4837985;29;20041;-82
2022/08/05 05:49:37;;;;;;;12.02;7.47;;;;;;;34.87;33.72;100526.88;4833540;29;20058;-84
2022/08/05 05:52:04;;;;;;;9.45;7.20;;;;;;;36.02;31.59;100551.22;4832179;29;20044;-82
2022/08/05 05:54:31;;;;;;;8.77;7.15;;;;;;;36.61;29.63;100553.97;4832102;29;20042;-85
2022/08/05 05:56:57;;;;;;;8.68;6.60;;;;;;;37.47;28.62;100545.56;4834427;29;20045;-81
2022/08/05 05:59:23;;;;;;;7.88;6.60;;;;;;;37.63;28.19;100549.25;4838938;29;20046;-81
2022/08/05 06:01:49;;;;;;;8.98;7.05;;;;;;;38.05;26.92;100514.69;4830119;29;20053;-82
2022/08/05 06:04:15;;;;;;;8.05;6.70;;;;;;;38.41;26.33;100504.16;4827368;29;20046;-82
2022/08/05 06:06:43;;;;;;;7.18;6.47;;;;;;;39.62;24.35;100505.34;4844156;29;20041;-85
2022/08/05 06:09:10;;;;;;;11.73;6.07;;;;;;;40.52;23.89;100546.09;4844077;29;20062;-84
2022/08/05 06:11:36;;;;;;;6.85;5.90;;;;;;;40.60;22.97;100528.78;4843989;29;20042;-83
2022/08/05 06:14:03;;;;;;;9.88;5.97;;;;;;;40.75;22.01;100553.28;4847661;29;20042;-83
2022/08/05 06:16:29;;;;;;;9.32;5.90;;;;;;;41.45;21.40;100538.97;4841893;29;20102;-83
2022/08/05 06:18:59;;;;;;;6.70;5.38;;;;;;;41.96;21.25;100566.00;4827609;29;20057;-81
2022/08/05 06:21:26;;;;;;;8.38;5.47;;;;;;;42.20;20.14;100532.88;4841139;29;20519;-82
2022/08/05 06:23:52;;;;;;;7.25;5.40;;;;;;;42.82;19.70;100563.78;4826192;29;20046;-83
2022/08/05 06:26:18;;;;;;;6.28;5.53;;;;;;;43.22;19.56;100541.06;4842784;29;20102;-82
2022/08/05 06:28:44;;;;;;;6.90;5.93;;;;;;;43.27;18.51;100524.00;4812749;29;20102;-84
2022/08/05 06:31:13;;;;;;;6.10;5.53;;;;;;;43.53;18.83;100525.84;4833756;29;20070;-85
2022/08/05 06:33:40;;;;;;;7.73;5.30;;;;;;;43.25;18.14;100506.94;4828726;29;20042;-83
2022/08/05 06:36:06;;;;;;;8.27;5.00;;;;;;;44.00;18.50;100511.16;4841138;29;20081;-85
2022/08/05 06:38:32;;;;;;;6.60;5.60;;;;;;;44.79;17.11;100544.69;4828287;29;20069;-84
2022/08/05 06:40:59;;;;;;;7.55;5.65;;;;;;;44.47;16.86;100497.25;4840498;29;20985;-86
2022/08/05 06:43:25;;;;;;;10.45;5.53;;;;;;;45.12;16.53;100559.22;4821219;29;20050;-85
2022/08/05 06:45:51;;;;;;;7.88;5.63;;;;;;;45.30;16.67;100517.22;4810187;29;20046;-82
2022/08/05 06:48:17;;;;;;;6.43;5.38;;;;;;;45.92;16.23;100535.56;4827463;29;20537;-83
2022/08/05 06:50:44;;;;;;;7.07;4.90;;;;;;;46.58;15.26;100532.16;4831144;29;20046;-82
2022/08/05 06:53:12;;;;;;;6.72;5.00;;;;;;;47.10;14.96;100560.97;4843500;29;20105;-84
2022/08/05 06:55:41;;;;;;;5.80;4.60;;;;;;;47.02;14.55;100521.69;4852873;29;20042;-82
2022/08/05 06:58:08;;;;;;;5.00;4.50;;;;;;;46.50;14.85;100529.72;4842159;29;20052;-84
2022/08/05 07:00:34;;;;;;;6.15;4.82;;;;;;;46.38;14.60;100558.03;4844886;29;20045;-83
2022/08/05 07:03:01;;;;;;;5.15;4.32;;;;;;;45.97;14.42;100529.38;4847197;29;20050;-82
2022/08/05 07:05:27;;;;;;;6.03;4.57;;;;;;;46.61;13.90;100526.19;4846071;29;20053;-83
2022/08/05 07:08:01;;;;;;;5.53;4.75;;;;;;;47.79;13.47;100557.56;4837819;29;20717;-84
2022/08/05 07:10:35;;;;;;;5.03;4.63;;;;;;;48.30;13.54;100549.50;4829547;29;20054;-85
2022/08/05 07:18:52;;;;;;;5.00;4.60;;;;;;;46.54;13.49;100541.94;4835904;29;20045;-86
2022/08/05 07:21:50;;;;;;;6.15;4.40;;;;;;;47.46;13.91;100528.75;4826086;29;20064;-81
2022/08/05 07:24:22;;;;;;;6.78;4.82;;;;;;;48.00;12.69;100564.38;4851317;29;20049;-82
2022/08/05 07:26:55;;;;;;;6.97;4.35;;;;;;;47.79;13.01;100554.81;4832783;29;20034;-82
2022/08/05 07:29:21;;;;;;;5.85;4.55;;;;;;;47.82;13.05;100551.56;4831467;29;20486;-83
2022/08/05 07:31:56;;;;;;;4.70;4.32;;;;;;;47.66;13.06;100555.94;4803492;29;20087;-83
2022/08/05 07:34:52;;;;;;;5.28;4.40;;;;;;;48.51;12.32;100497.47;4800817;29;20057;-82
2022/08/05 07:37:19;;;;;;;5.60;4.50;;;;;;;50.25;11.76;100552.66;4830906;29;20041;-83
2022/08/05 07:39:45;;;;;;;5.50;5.00;;;;;;;50.38;11.21;100540.34;4846154;29;20110;-83
2022/08/05 07:42:12;;;;;;;5.03;4.63;;;;;;;50.42;11.38;100551.72;4845863;29;20155;-83
2022/08/05 07:44:38;;;;;;;4.88;4.43;;;;;;;50.99;11.18;100543.91;4834689;29;20076;-82
2022/08/05 07:47:04;;;;;;;5.72;5.22;;;;;;;51.82;10.41;100539.66;4817782;29;20045;-82
2022/08/05 07:49:30;;;;;;;5.07;4.68;;;;;;;52.29;9.79;100543.38;4818016;29;20052;-83
2022/08/05 07:51:56;;;;;;;6.20;5.60;;;;;;;51.29;10.42;100543.28;4833704;29;20098;-83
2022/08/05 07:54:27;;;;;;;6.05;5.55;;;;;;;50.52;11.48;100520.56;4830848;29;20046;-84
2022/08/05 07:56:53;;;;;;;6.03;5.18;;;;;;;50.95;10.59;100509.53;4830303;29;20041;-84
2022/08/05 07:59:20;;;;;;;5.50;5.00;;;;;;;50.67;10.95;100528.13;4835336;29;20126;-83
2022/08/05 08:01:46;;;;;;;6.20;5.60;;;;;;;49.91;11.50;100492.00;4831450;29;20091;-84
2022/08/05 08:04:12;;;;;;;6.15;5.53;;;;;;;51.32;10.18;100530.81;4819837;29;20054;-84
2022/08/05 08:06:38;;;;;;;6.75;6.10;;;;;;;49.95;11.36;100509.75;4833433;29;20041;-82
2022/08/05 08:09:04;;;;;;;6.40;5.85;;;;;;;50.37;11.26;100513.75;4825729;29;20053;-86
2022/08/05 08:11:31;;;;;;;6.45;5.90;;;;;;;50.35;10.76;100485.53;4834436;29;20057;-85
2022/08/05 08:14:00;;;;;;;5.97;5.38;;;;;;;50.97;11.11;100512.88;4820725;29;20068;-85
2022/08/05 08:16:26;;;;;;;6.57;5.75;;;;;;;51.49;10.33;100505.69;4820291;29;20054;-81
2022/08/05 08:18:52;;;;;;;5.95;5.45;;;;;;;51.56;10.47;100524.84;4832590;29;20136;-84
2022/08/05 08:21:19;;;;;;;5.70;5.30;;;;;;;52.17;10.23;100518.66;4834040;29;20050;-84
2022/08/05 08:23:45;;;;;;;8.50;6.07;;;;;;;50.98;10.30;100514.56;4813511;29;20052;-84
2022/08/05 08:26:12;;;;;;;6.63;6.03;;;;;;;49.95;11.16;100531.88;4831127;29;20042;-83
2022/08/05 08:28:38;;;;;;;6.70;6.07;;;;;;;49.84;11.17;100472.03;4832741;29;20038;-83
2022/08/05 08:31:05;;;;;;;8.10;5.97;;;;;;;48.82;11.50;100471.22;4844560;29;20056;-82
2022/08/05 08:33:35;;;;;;;6.28;5.68;;;;;;;50.61;10.79;100521.75;4836396;29;20042;-83
2022/08/05 08:36:03;;;;;;;7.25;6.28;;;;;;;50.61;10.72;100514.28;4817847;29;20046;-85
2022/08/05 08:38:30;;;;;;;11.23;6.10;;;;;;;48.88;11.11;100516.31;4833591;29;20092;-83
2022/08/05 08:41:07;;;;;;;6.88;6.07;;;;;;;47.57;11.64;100472.81;4834905;29;20459;-85
2022/08/05 08:43:37;;;;;;;7.10;5.93;;;;;;;48.03;12.43;100496.88;4825433;29;20044;-84
2022/08/05 08:46:05;;;;;;;7.30;6.43;;;;;;;49.80;11.00;100496.59;4839663;29;20479;-84
2022/08/05 08:48:33;;;;;;;6.28;5.65;;;;;;;50.17;11.03;100478.47;4817919;29;20557;-84
2022/08/05 08:51:01;;;;;;;8.53;6.57;;;;;;;50.21;11.52;100474.06;4827185;29;20050;-84
2022/08/05 08:53:36;;;;;;;6.85;6.15;;;;;;;50.62;10.19;100479.97;4835333;29;20137;-83
2022/08/05 08:56:04;;;;;;;7.20;6.18;;;;;;;49.96;11.04;100492.06;4840628;29;20050;-84
2022/08/05 08:58:34;;;;;;;7.50;6.28;;;;;;;50.08;10.82;100511.28;4829809;29;20049;-85
2022/08/05 09:01:00;;;;;;;7.00;6.35;;;;;;;49.01;11.70;100495.78;4838555;29;20115;-84
2022/08/05 09:03:35;;;;;;;7.75;6.25;;;;;;;48.49;11.46;100467.38;4808967;29;20042;-84
2022/08/05 09:06:01;;;;;;;10.07;6.20;;;;;;;47.95;12.28;100468.63;4838411;29;20529;-83
2022/08/05 09:08:30;;;;;;;6.97;6.38;;;;;;;48.55;11.64;100468.31;4845203;29;20101;-86
2022/08/05 09:11:01;;;;;;;9.38;6.15;;;;;;;49.72;11.35;100506.16;4844878;29;20057;-84
2022/08/05 09:13:30;;;;;;;8.05;6.40;;;;;;;51.45;10.33;100502.63;4844082;29;20052;-85
2022/08/05 09:15:57;;;;;;;7.63;6.78;;;;;;;52.02;9.97;100516.69;4849567;29;20132;-83
2022/08/05 09:18:24;;;;;;;8.00;7.20;;;;;;;51.40;10.18;100516.47;4854067;29;20050;-82
2022/08/05 09:20:50;;;;;;;8.13;6.68;;;;;;;51.09;10.21;100452.59;4847329;29;20061;-83
2022/08/05 09:23:19;;;;;;;6.82;6.22;;;;;;;52.42;10.04;100470.69;4847996;29;20109;-86
2022/08/05 09:25:50;;;;;;;7.47;6.65;;;;;;;53.80;9.22;100486.41;4834406;29;20122;-86
2022/08/05 09:28:23;;;;;;;7.30;6.60;;;;;;;53.70;9.32;100492.84;4842505;29;20091;-83
2022/08/05 09:31:05;;;;;;;7.43;6.75;;;;;;;53.26;9.41;100449.97;4831267;29;20082;-88
2022/08/05 09:34:13;;;;;;;10.77;7.30;;;;;;;52.19;9.23;100488.69;4822729;29;20121;-84
2022/08/05 09:37:18;;;;;;;8.65;6.72;;;;;;;51.68;9.64;100489.44;4846513;29;20066;-84
2022/08/05 09:39:45;;;;;;;7.53;6.72;;;;;;;51.07;9.94;100443.72;4860729;29;20041;-84
2022/08/05 09:42:18;;;;;;;7.57;6.88;;;;;;;50.39;10.77;100441.59;4860056;29;20046;-84
2022/08/05 09:45:54;;;;;;;;;;;;;;;;;;;;;
2022/08/05 09:48:25;;;;;;;7.93;6.45;;;;;;;50.10;11.56;100439.91;4821924;29;20058;-82
2022/08/05 09:51:04;;;;;;;8.70;6.75;;;;;;;51.30;10.06;100463.78;4832347;29;20061;-84
2022/08/05 09:53:46;;;;;;;7.63;6.32;;;;;;;50.53;10.37;100442.81;4845605;29;20049;-83
2022/08/05 09:56:33;;;;;;;8.07;7.30;;;;;;;48.96;10.90;100440.50;4838728;29;20065;-83
2022/08/05 09:59:12;;;;;;;8.90;6.05;;;;;;;48.85;11.33;100421.06;4845867;29;20047;-83
2022/08/05 10:01:42;;;;;;;8.15;6.38;;;;;;;48.74;11.38;100441.28;4847672;29;20065;-85
2022/08/05 10:04:12;;;;;;;7.78;6.07;;;;;;;50.02;10.96;100459.78;4857962;29;20638;-84
2022/08/05 10:06:55;;;;;;;7.25;6.55;;;;;;;50.71;9.83;100401.97;4831988;29;20157;-86
2022/08/05 10:09:24;;;;;;;7.13;5.78;;;;;;;51.28;9.53;100443.84;4845526;29;20210;-86
2022/08/05 10:11:51;;;;;;;9.07;6.00;;;;;;;50.99;9.98;100422.88;4827987;29;20126;-85
2022/08/05 10:14:24;;;;;;;6.20;5.57;;;;;;;52.06;10.07;100454.03;4841823;29;20050;-85
2022/08/05 10:16:57;;;;;;;8.52;5.80;;;;;;;50.24;10.19;100431.22;4839229;29;20077;-83
2022/08/05 10:19:25;;;;;;;12.25;5.72;;;;;;;50.50;10.10;100457.19;4828351;29;20074;-84
2022/08/05 10:21:54;;;;;;;6.43;5.63;;;;;;;49.41;10.31;100452.44;4837820;29;20122;-83
2022/08/05 10:24:20;;;;;;;8.93;5.70;;;;;;;48.50;11.00;100435.94;4813736;29;20038;-85
2022/08/05 10:26:50;;;;;;;6.43;5.72;;;;;;;48.73;11.04;100422.25;4832090;29;20042;-84
2022/08/05 10:29:17;;;;;;;6.00;5.40;;;;;;;48.72;10.87;100449.00;4828748;29;20519;-82
2022/08/05 10:31:43;;;;;;;6.28;5.70;;;;;;;48.33;11.40;100451.66;4833130;29;20054;-84
2022/08/05 10:34:09;;;;;;;5.65;5.10;;;;;;;47.50;11.58;100419.78;4820715;29;20050;-85
2022/08/05 10:36:40;;;;;;;6.20;5.45;;;;;;;46.94;11.96;100420.22;4811755;29;20055;-83
2022/08/05 10:39:11;;;;;;;6.20;5.25;;;;;;;46.06;11.82;100452.97;4833914;29;20076;-83
2022/08/05 10:42:12;;;;;;;7.10;5.07;;;;;;;44.13;13.40;100425.31;4856692;29;20058;-83
2022/08/05 10:44:44;;;;;;;10.05;5.70;;;;;;;42.93;13.90;100449.28;4856239;29;20102;-84
2022/08/05 10:47:16;;;;;;;6.30;5.45;;;;;;;41.35;15.63;100444.66;4830321;29;20042;-84
2022/08/05 10:50:05;;;;;;;7.88;5.65;;;;;;;40.35;16.33;100441.94;4846028;29;20046;-88
2022/08/05 10:52:58;;;;;;;6.75;5.30;;;;;;;39.21;17.06;100362.41;4863218;29;20064;-83
2022/08/05 10:55:29;;;;;;;6.63;6.03;;;;;;;38.90;17.95;100430.59;4877046;24;20069;-84
2022/08/05 10:58:12;;;;;;;9.48;6.25;;;;;;;38.48;17.78;100395.59;4852244;29;20220;-86
2022/08/05 11:00:49;;;;;;;9.02;5.78;;;;;;;37.74;18.53;100383.31;4824803;29;20027;-86
2022/08/05 11:03:15;;;;;;;8.25;5.80;;;;;;;37.75;18.79;100422.16;4813103;29;20057;-84
2022/08/05 11:06:03;;;;;;;6.43;5.65;;;;;;;37.50;19.65;100436.69;4831583;29;20084;-81
2022/08/05 11:08:32;;;;;;;9.90;6.18;;;;;;;36.67;20.34;100380.91;4833283;29;20495;-84
2022/08/05 11:11:37;;;;;;;5.93;5.43;;;;;;;36.68;20.35;100434.09;4822957;29;20507;-83
2022/08/05 11:14:11;;;;;;;8.75;5.63;;;;;;;35.69;20.38;100357.03;4796559;29;20084;-83
2022/08/05 11:16:40;;;;;;;6.03;5.43;;;;;;;35.79;20.97;100394.78;4812566;29;20128;-89
2022/08/05 11:19:27;;;;;;;6.40;5.80;;;;;;;36.10;21.20;100433.97;4822748;29;20676;-85
2022/08/05 11:22:34;;;;;;;6.07;5.55;;;;;;;35.84;20.90;100403.25;4804218;29;20511;-85
2022/08/05 11:25:42;;;;;;;9.32;5.80;;;;;;;35.98;20.99;100423.47;4822774;29;20046;-85
2022/08/05 11:28:12;;;;;;;6.78;5.57;;;;;;;35.91;21.18;100425.09;4826405;29;20042;-85
2022/08/05 11:30:57;;;;;;;5.97;5.22;;;;;;;35.97;20.46;100420.94;4810124;29;20085;-80
2022/08/05 11:33:35;;;;;;;7.90;5.78;;;;;;;35.18;21.05;100353.44;4836813;29;20050;-81
2022/08/05 11:36:08;;;;;;;7.57;5.70;;;;;;;34.60;21.73;100378.22;4841178;29;20050;-82
2022/08/05 11:38:38;;;;;;;6.53;5.82;;;;;;;34.46;22.45;100408.47;4815997;29;20057;-82
2022/08/05 11:41:06;;;;;;;6.78;5.70;;;;;;;34.33;22.61;100416.91;4829455;29;20062;-81
2022/08/05 11:43:33;;;;;;;7.63;6.40;;;;;;;34.22;22.57;100397.25;4808530;29;20034;-80
2022/08/05 11:46:00;;;;;;;6.65;5.75;;;;;;;34.38;22.97;100417.31;4837436;29;20047;-81